sensor_id;sensor_type;location;lat;lon;timestamp;pressure;altitude;pressure_sealevel;temperature;humidity
54503;BME280;40411;50.090;21.954;2022-08-18T00:01:50;153700.84;;;18.52;100.00
54503;BME280;40411;50.090;21.954;2022-08-18T00:04:19;153718.88;;;18.59;100.00
54503;BME280;40411;50.090;21.954;2022-08-18T00:06:45;153740.75;;;18.68;100.00
54503;BME280;40411;50.090;21.954;2022-08-18T00:09:11;153736.84;;;18.66;100.00
54503;BME280;40411;50.090;21.954;2022-08-18T00:11:39;153698.28;;;18.51;100.00
54503;BME280;40411;50.090;21.954;2022-08-18T00:14:17;153713.72;;;18.57;100.00
54503;BME280;40411;50.090;21.954;2022-08-18T00:16:43;153711.16;;;18.56;100.00
54503;BME280;40411;50.090;21.954;2022-08-18T00:19:09;153695.72;;;18.50;100.00
54503;BME280;40411;50.090;21.954;2022-08-18T00:21:35;153693.13;;;18.49;100.00
54503;BME280;40411;50.090;21.954;2022-08-18T00:24:01;153681.59;;;18.44;100.00
54503;BME280;40411;50.090;21.954;2022-08-18T00:26:27;153698.28;;;18.51;100.00
54503;BME280;40411;50.090;21.954;2022-08-18T00:28:53;153673.81;;;18.41;100.00
54503;BME280;40411;50.090;21.954;2022-08-18T00:31:19;153659.69;;;18.36;100.00
54503;BME280;40411;50.090;21.954;2022-08-18T00:33:45;153663.56;;;18.37;100.00
54503;BME280;40411;50.090;21.954;2022-08-18T00:36:11;153661.00;;;18.36;100.00
54503;BME280;40411;50.090;21.954;2022-08-18T00:38:37;153646.84;;;18.30;100.00
54503;BME280;40411;50.090;21.954;2022-08-18T00:41:04;153631.38;;;18.24;100.00
54503;BME280;40411;50.090;21.954;2022-08-18T00:43:44;153600.53;;;18.12;100.00
54503;BME280;40411;50.090;21.954;2022-08-18T00:46:17;153577.41;;;18.03;100.00
54503;BME280;40411;50.090;21.954;2022-08-18T00:48:44;153588.94;;;18.07;100.00
54503;BME280;40411;50.090;21.954;2022-08-18T00:51:29;153523.38;;;17.81;100.00
54503;BME280;40411;50.090;21.954;2022-08-18T00:56:44;153500.19;;;17.72;100.00
54503;BME280;40411;50.090;21.954;2022-08-18T01:01:50;153477.03;;;17.63;100.00
54503;BME280;40411;50.090;21.954;2022-08-18T01:05:02;153477.03;;;17.63;100.00
54503;BME280;40411;50.090;21.954;2022-08-18T01:07:33;153441.03;;;17.49;100.00
54503;BME280;40411;50.090;21.954;2022-08-18T01:10:01;153433.31;;;17.46;100.00
54503;BME280;40411;50.090;21.954;2022-08-18T01:12:30;153466.75;;;17.59;100.00
54503;BME280;40411;50.090;21.954;2022-08-18T01:14:56;153477.03;;;17.63;100.00
54503;BME280;40411;50.090;21.954;2022-08-18T01:17:24;153452.63;;;17.53;100.00
54503;BME280;40411;50.090;21.954;2022-08-18T01:20:27;153437.19;;;17.47;100.00
54503;BME280;40411;50.090;21.954;2022-08-18T01:23:16;153459.06;;;17.56;100.00
54503;BME280;40411;50.090;21.954;2022-08-18T01:25:43;153484.72;;;17.66;100.00
54503;BME280;40411;50.090;21.954;2022-08-18T01:28:30;153486.06;;;17.67;100.00
54503;BME280;40411;50.090;21.954;2022-08-18T01:30:57;153448.75;;;17.52;100.00
54503;BME280;40411;50.090;21.954;2022-08-18T01:33:25;153438.47;;;17.48;100.00
54503;BME280;40411;50.090;21.954;2022-08-18T01:35:52;153394.78;;;17.30;100.00
54503;BME280;40411;50.090;21.954;2022-08-18T01:38:20;153387.03;;;17.27;100.00
54503;BME280;40411;50.090;21.954;2022-08-18T01:40:47;153417.91;;;17.39;100.00
54503;BME280;40411;50.090;21.954;2022-08-18T01:43:14;153474.47;;;17.62;100.00
54503;BME280;40411;50.090;21.954;2022-08-18T01:45:40;153529.81;;;17.84;100.00
54503;BME280;40411;50.090;21.954;2022-08-18T01:48:07;153531.09;;;17.84;100.00
54503;BME280;40411;50.090;21.954;2022-08-18T01:50:34;153543.97;;;17.90;100.00
54503;BME280;40411;50.090;21.954;2022-08-18T01:53:02;153579.97;;;18.04;100.00
54503;BME280;40411;50.090;21.954;2022-08-18T01:55:35;153563.25;;;17.97;100.00
54503;BME280;40411;50.090;21.954;2022-08-18T01:58:01;153551.66;;;17.93;100.00
54503;BME280;40411;50.090;21.954;2022-08-18T02:00:28;153549.13;;;17.92;100.00
54503;BME280;40411;50.090;21.954;2022-08-18T02:02:54;153513.03;;;17.77;100.00
54503;BME280;40411;50.090;21.954;2022-08-18T02:05:28;153471.91;;;17.61;100.00
54503;BME280;40411;50.090;21.954;2022-08-18T02:07:55;153482.19;;;17.65;100.00
54503;BME280;40411;50.090;21.954;2022-08-18T02:10:21;153509.19;;;17.76;100.00
54503;BME280;40411;50.090;21.954;2022-08-18T02:12:47;153518.22;;;17.79;100.00
54503;BME280;40411;50.090;21.954;2022-08-18T02:15:13;153528.53;;;17.83;100.00
54503;BME280;40411;50.090;21.954;2022-08-18T02:17:41;153564.53;;;17.98;100.00
54503;BME280;40411;50.090;21.954;2022-08-18T02:20:11;153570.97;;;18.00;100.00
54503;BME280;40411;50.090;21.954;2022-08-18T02:22:38;153590.28;;;18.08;100.00
54503;BME280;40411;50.090;21.954;2022-08-18T02:25:04;153587.66;;;18.07;100.00
54503;BME280;40411;50.090;21.954;2022-08-18T02:27:30;153590.28;;;18.08;100.00
54503;BME280;40411;50.090;21.954;2022-08-18T02:29:59;153560.66;;;17.96;100.00
54503;BME280;40411;50.090;21.954;2022-08-18T02:32:25;153564.53;;;17.98;100.00
54503;BME280;40411;50.090;21.954;2022-08-18T02:34:51;153551.66;;;17.93;100.00
54503;BME280;40411;50.090;21.954;2022-08-18T02:37:17;153502.75;;;17.73;100.00
54503;BME280;40411;50.090;21.954;2022-08-18T02:39:43;153471.91;;;17.61;100.00
54503;BME280;40411;50.090;21.954;2022-08-18T02:42:09;153489.88;;;17.68;100.00
54503;BME280;40411;50.090;21.954;2022-08-18T02:44:35;153484.72;;;17.66;100.00
54503;BME280;40411;50.090;21.954;2022-08-18T02:47:01;153474.47;;;17.62;100.00
54503;BME280;40411;50.090;21.954;2022-08-18T02:49:27;153452.63;;;17.53;100.00
54503;BME280;40411;50.090;21.954;2022-08-18T02:51:53;153446.19;;;17.51;100.00
54503;BME280;40411;50.090;21.954;2022-08-18T02:54:21;153456.44;;;17.55;100.00
54503;BME280;40411;50.090;21.954;2022-08-18T02:56:49;153430.78;;;17.45;100.00
54503;BME280;40411;50.090;21.954;2022-08-18T02:59:20;153428.16;;;17.43;100.00
54503;BME280;40411;50.090;21.954;2022-08-18T03:01:49;153428.16;;;17.43;100.00
54503;BME280;40411;50.090;21.954;2022-08-18T03:04:18;153426.88;;;17.43;100.00
54503;BME280;40411;50.090;21.954;2022-08-18T03:06:45;153399.88;;;17.32;100.00
54503;BME280;40411;50.090;21.954;2022-08-18T03:09:15;153406.31;;;17.35;100.00
54503;BME280;40411;50.090;21.954;2022-08-18T03:11:42;153369.06;;;17.20;100.00
54503;BME280;40411;50.090;21.954;2022-08-18T03:14:09;153410.19;;;17.36;100.00
54503;BME280;40411;50.090;21.954;2022-08-18T03:16:40;153425.63;;;17.42;100.00
54503;BME280;40411;50.090;21.954;2022-08-18T03:19:06;153416.63;;;17.39;100.00
54503;BME280;40411;50.090;21.954;2022-08-18T03:21:33;153425.63;;;17.42;100.00
54503;BME280;40411;50.090;21.954;2022-08-18T03:24:03;153407.59;;;17.35;100.00
54503;BME280;40411;50.090;21.954;2022-08-18T03:26:31;153387.03;;;17.27;100.00
54503;BME280;40411;50.090;21.954;2022-08-18T03:28:58;153388.34;;;17.28;100.00
54503;BME280;40411;50.090;21.954;2022-08-18T03:31:25;153379.31;;;17.24;100.00
54503;BME280;40411;50.090;21.954;2022-08-18T03:33:55;153363.91;;;17.18;100.00
54503;BME280;40411;50.090;21.954;2022-08-18T03:36:24;153390.91;;;17.29;100.00
54503;BME280;40411;50.090;21.954;2022-08-18T03:38:52;153392.19;;;17.29;100.00
54503;BME280;40411;50.090;21.954;2022-08-18T03:41:21;153380.66;;;17.25;100.00
54503;BME280;40411;50.090;21.954;2022-08-18T03:43:48;153379.31;;;17.24;100.00
54503;BME280;40411;50.090;21.954;2022-08-18T03:46:15;153399.88;;;17.32;100.00
54503;BME280;40411;50.090;21.954;2022-08-18T03:48:44;153420.47;;;17.40;100.00
54503;BME280;40411;50.090;21.954;2022-08-18T03:51:20;153441.03;;;17.49;100.00
54503;BME280;40411;50.090;21.954;2022-08-18T03:53:47;153459.06;;;17.56;100.00
54503;BME280;40411;50.090;21.954;2022-08-18T03:56:16;153448.75;;;17.52;100.00
54503;BME280;40411;50.090;21.954;2022-08-18T03:58:49;153399.88;;;17.32;100.00
54503;BME280;40411;50.090;21.954;2022-08-18T04:01:18;153425.63;;;17.42;100.00
54503;BME280;40411;50.090;21.954;2022-08-18T04:03:50;153412.75;;;17.37;100.00
54503;BME280;40411;50.090;21.954;2022-08-18T04:06:19;153411.47;;;17.37;100.00
54503;BME280;40411;50.090;21.954;2022-08-18T04:08:45;153453.91;;;17.54;100.00
54503;BME280;40411;50.090;21.954;2022-08-18T04:11:11;153471.91;;;17.61;100.00
54503;BME280;40411;50.090;21.954;2022-08-18T04:13:39;153435.88;;;17.47;100.00
54503;BME280;40411;50.090;21.954;2022-08-18T04:16:06;153475.75;;;17.62;100.00
54503;BME280;40411;50.090;21.954;2022-08-18T04:18:32;153507.91;;;17.75;100.00
54503;BME280;40411;50.090;21.954;2022-08-18T04:21:06;153495.03;;;17.70;100.00
54503;BME280;40411;50.090;21.954;2022-08-18T04:23:34;153497.59;;;17.71;100.00
54503;BME280;40411;50.090;21.954;2022-08-18T04:26:00;153542.69;;;17.89;100.00
54503;BME280;40411;50.090;21.954;2022-08-18T04:28:27;153585.13;;;18.06;100.00
54503;BME280;40411;50.090;21.954;2022-08-18T04:30:54;153624.94;;;18.22;100.00
54503;BME280;40411;50.090;21.954;2022-08-18T04:33:27;153618.56;;;18.19;100.00
54503;BME280;40411;50.090;21.954;2022-08-18T04:35:54;153609.53;;;18.16;100.00
54503;BME280;40411;50.090;21.954;2022-08-18T04:38:21;153596.66;;;18.11;100.00
54503;BME280;40411;50.090;21.954;2022-08-18T04:40:48;153646.84;;;18.30;100.00
54503;BME280;40411;50.090;21.954;2022-08-18T04:43:13;153640.41;;;18.28;100.00
54503;BME280;40411;50.090;21.954;2022-08-18T04:45:46;153614.69;;;18.18;100.00
54503;BME280;40411;50.090;21.954;2022-08-18T04:48:13;153622.41;;;18.21;100.00
54503;BME280;40411;50.090;21.954;2022-08-18T04:50:41;153596.66;;;18.11;100.00
54503;BME280;40411;50.090;21.954;2022-08-18T04:53:06;153610.81;;;18.16;100.00
54503;BME280;40411;50.090;21.954;2022-08-18T04:55:53;153685.41;;;18.46;100.00
54503;BME280;40411;50.090;21.954;2022-08-18T04:58:21;153709.88;;;18.56;100.00
54503;BME280;40411;50.090;21.954;2022-08-18T05:00:55;153709.88;;;18.56;100.00
54503;BME280;40411;50.090;21.954;2022-08-18T05:03:22;153763.94;;;18.77;100.00
54503;BME280;40411;50.090;21.954;2022-08-18T05:05:56;153770.38;;;18.80;100.00
54503;BME280;40411;50.090;21.954;2022-08-18T05:08:23;153789.69;;;18.87;100.00
54503;BME280;40411;50.090;21.954;2022-08-18T05:10:53;153839.84;;;19.07;100.00
54503;BME280;40411;50.090;21.954;2022-08-18T05:13:20;153904.19;;;19.33;100.00
54503;BME280;40411;50.090;21.954;2022-08-18T05:15:54;153962.16;;;19.56;100.00
54503;BME280;40411;50.090;21.954;2022-08-18T05:18:23;153960.81;;;19.55;100.00
54503;BME280;40411;50.090;21.954;2022-08-18T05:20:54;153994.34;;;19.69;100.00
54503;BME280;40411;50.090;21.954;2022-08-18T05:23:21;154027.81;;;19.82;100.00
54503;BME280;40411;50.090;21.954;2022-08-18T05:25:48;154067.75;;;19.98;100.00
54503;BME280;40411;50.090;21.954;2022-08-18T05:28:14;154107.63;;;20.14;100.00
54503;BME280;40411;50.090;21.954;2022-08-18T05:30:41;154146.28;;;20.29;100.00
54503;BME280;40411;50.090;21.954;2022-08-18T05:33:07;154174.63;;;20.40;100.00
54503;BME280;40411;50.090;21.954;2022-08-18T05:35:41;154226.16;;;20.61;100.00
54503;BME280;40411;50.090;21.954;2022-08-18T05:38:29;154219.72;;;20.58;100.00
54503;BME280;40411;50.090;21.954;2022-08-18T05:41:06;154276.38;;;20.81;100.00
54503;BME280;40411;50.090;21.954;2022-08-18T05:43:34;154342.13;;;21.07;100.00
54503;BME280;40411;50.090;21.954;2022-08-18T05:46:01;154320.22;;;20.98;100.00
54503;BME280;40411;50.090;21.954;2022-08-18T05:48:30;154342.13;;;21.07;100.00
54503;BME280;40411;50.090;21.954;2022-08-18T05:50:57;154370.47;;;21.18;100.00
54503;BME280;40411;50.090;21.954;2022-08-18T05:53:25;154434.94;;;21.44;100.00
54503;BME280;40411;50.090;21.954;2022-08-18T05:56:11;154436.19;;;21.44;100.00
54503;BME280;40411;50.090;21.954;2022-08-18T05:58:58;154481.34;;;21.62;100.00
54503;BME280;40411;50.090;21.954;2022-08-18T06:01:33;154553.50;;;21.91;100.00
54503;BME280;40411;50.090;21.954;2022-08-18T06:04:16;154557.34;;;21.92;100.00
54503;BME280;40411;50.090;21.954;2022-08-18T06:06:45;154624.44;;;22.19;100.00
54503;BME280;40411;50.090;21.954;2022-08-18T06:09:20;154655.34;;;22.31;100.00
54503;BME280;40411;50.090;21.954;2022-08-18T06:11:48;154666.97;;;22.36;100.00
54503;BME280;40411;50.090;21.954;2022-08-18T06:14:15;154668.25;;;22.36;100.00
54503;BME280;40411;50.090;21.954;2022-08-18T06:17:31;154704.34;;;22.50;100.00
54503;BME280;40411;50.090;21.954;2022-08-18T06:28:11;154852.69;;;23.09;100.00
54503;BME280;40411;50.090;21.954;2022-08-18T06:36:06;154977.84;;;23.59;100.00
54503;BME280;40411;50.090;21.954;2022-08-18T06:41:48;155038.53;;;23.83;100.00
54503;BME280;40411;50.090;21.954;2022-08-18T06:44:32;155132.72;;;24.20;100.00
54503;BME280;40411;50.090;21.954;2022-08-18T06:47:06;155117.25;;;24.14;100.00
54503;BME280;40411;50.090;21.954;2022-08-18T06:49:38;155152.09;;;24.28;100.00
54503;BME280;40411;50.090;21.954;2022-08-18T06:54:47;155161.13;;;24.31;100.00
54503;BME280;40411;50.090;21.954;2022-08-18T06:57:56;155223.13;;;24.56;100.00
54503;BME280;40411;50.090;21.954;2022-08-18T07:00:28;155296.75;;;24.85;100.00
54503;BME280;40411;50.090;21.954;2022-08-18T07:03:05;155354.84;;;25.08;100.00
54503;BME280;40411;50.090;21.954;2022-08-18T07:05:34;155370.38;;;25.14;100.00
54503;BME280;40411;50.090;21.954;2022-08-18T07:10:51;155456.88;;;25.49;100.00
54503;BME280;40411;50.090;21.954;2022-08-18T07:13:26;155382.00;;;25.19;100.00
54503;BME280;40411;50.090;21.954;2022-08-18T07:16:15;155467.22;;;25.53;100.00
54503;BME280;40411;50.090;21.954;2022-08-18T07:18:42;155500.81;;;25.66;100.00
54503;BME280;40411;50.090;21.954;2022-08-18T07:21:08;155539.53;;;25.81;100.00
54503;BME280;40411;50.090;21.954;2022-08-18T07:23:57;155699.81;;;26.45;100.00
54503;BME280;40411;50.090;21.954;2022-08-18T07:26:24;155854.94;;;27.06;100.00
54503;BME280;40411;50.090;21.954;2022-08-18T07:28:51;156167.91;;;28.30;100.00
54503;BME280;40411;50.090;21.954;2022-08-18T07:34:16;156481.09;;;29.54;95.21
54503;BME280;40411;50.090;21.954;2022-08-18T07:37:08;156742.69;;;30.57;88.43
54503;BME280;40411;50.090;21.954;2022-08-18T07:39:39;156701.25;;;30.41;90.02
54503;BME280;40411;50.090;21.954;2022-08-18T07:47:12;156825.59;;;30.90;82.39
54503;BME280;40411;50.090;21.954;2022-08-18T07:49:40;157038.06;;;31.74;79.80
54503;BME280;40411;50.090;21.954;2022-08-18T07:52:21;156955.16;;;31.41;80.52
54503;BME280;40411;50.090;21.954;2022-08-18T07:54:58;157110.66;;;32.02;77.91
54503;BME280;40411;50.090;21.954;2022-08-18T07:57:42;157259.72;;;32.61;75.39
54503;BME280;40411;50.090;21.954;2022-08-18T08:08:36;156468.16;;;29.49;83.91
54503;BME280;40411;50.090;21.954;2022-08-18T08:16:48;156219.72;;;28.50;88.07
54503;BME280;40411;50.090;21.954;2022-08-18T08:19:50;156140.72;;;28.19;88.85
54503;BME280;40411;50.090;21.954;2022-08-18T08:30:10;156675.34;;;30.31;81.36
54503;BME280;40411;50.090;21.954;2022-08-18T08:35:42;157525.56;;;33.66;73.03
54503;BME280;40411;50.090;21.954;2022-08-18T08:38:28;157381.59;;;33.09;69.22
54503;BME280;40411;50.090;21.954;2022-08-18T08:41:11;157676.03;;;34.25;60.88
54503;BME280;40411;50.090;21.954;2022-08-18T08:43:44;157720.13;;;34.43;62.99
54503;BME280;40411;50.090;21.954;2022-08-18T08:46:16;157730.53;;;34.47;52.33
54503;BME280;40411;50.090;21.954;2022-08-18T08:49:31;157900.56;;;35.14;52.95
54503;BME280;40411;50.090;21.954;2022-08-18T08:52:08;157910.91;;;35.18;51.26
54503;BME280;40411;50.090;21.954;2022-08-18T08:54:43;157894.06;;;35.11;52.29
54503;BME280;40411;50.090;21.954;2022-08-18T08:57:13;157927.78;;;35.25;50.18
54503;BME280;40411;50.090;21.954;2022-08-18T08:59:41;157746.06;;;34.53;56.72
54503;BME280;40411;50.090;21.954;2022-08-18T09:02:29;157603.38;;;33.97;57.49
54503;BME280;40411;50.090;21.954;2022-08-18T09:05:18;157041.94;;;31.75;58.43
54503;BME280;40411;50.090;21.954;2022-08-18T09:08:08;157132.69;;;32.11;59.30
54503;BME280;40411;50.090;21.954;2022-08-18T09:24:48;158113.41;;;35.98;49.52
54503;BME280;40411;50.090;21.954;2022-08-18T09:30:05;157713.63;;;34.40;49.13
54503;BME280;40411;50.090;21.954;2022-08-18T09:32:41;157847.28;;;34.93;49.94
54503;BME280;40411;50.090;21.954;2022-08-18T09:35:27;158034.25;;;35.67;48.87
54503;BME280;40411;50.090;21.954;2022-08-18T09:38:07;157857.69;;;34.97;51.24
54503;BME280;40411;50.090;21.954;2022-08-18T09:40:58;157999.16;;;35.53;48.58
54503;BME280;40411;50.090;21.954;2022-08-18T09:51:52;158031.63;;;35.66;48.27
54503;BME280;40411;50.090;21.954;2022-08-18T09:54:23;157757.81;;;34.58;52.04
54503;BME280;40411;50.090;21.954;2022-08-18T10:02:05;157573.56;;;33.85;51.93
54503;BME280;40411;50.090;21.954;2022-08-18T10:04:42;157482.75;;;33.49;53.35
54503;BME280;40411;50.090;21.954;2022-08-18T10:07:35;156907.16;;;31.22;57.62
54503;BME280;40411;50.090;21.954;2022-08-18T10:10:20;157251.94;;;32.58;57.50
54503;BME280;40411;50.090;21.954;2022-08-18T10:21:17;157570.94;;;33.84;49.97
54503;BME280;40411;50.090;21.954;2022-08-18T10:23:58;157781.16;;;34.67;48.32
54503;BME280;40411;50.090;21.954;2022-08-18T10:34:40;158109.47;;;35.96;44.67
54503;BME280;40411;50.090;21.954;2022-08-18T10:39:46;158077.06;;;35.84;45.86
54503;BME280;40411;50.090;21.954;2022-08-18T10:45:09;157380.31;;;33.09;51.27
54503;BME280;40411;50.090;21.954;2022-08-18T10:47:36;157708.47;;;34.38;53.84
54503;BME280;40411;50.090;21.954;2022-08-18T10:50:07;157647.50;;;34.14;50.28
54503;BME280;40411;50.090;21.954;2022-08-18T10:52:57;157525.56;;;33.66;48.77
54503;BME280;40411;50.090;21.954;2022-08-18T11:01:19;157777.22;;;34.65;47.09
54503;BME280;40411;50.090;21.954;2022-08-18T11:06:26;157516.47;;;33.63;48.22
54503;BME280;40411;50.090;21.954;2022-08-18T11:08:55;157427.00;;;33.27;51.98
54503;BME280;40411;50.090;21.954;2022-08-18T11:11:25;157714.97;;;34.41;50.02
54503;BME280;40411;50.090;21.954;2022-08-18T11:19:09;157389.38;;;33.12;49.72
54503;BME280;40411;50.090;21.954;2022-08-18T11:21:38;157564.44;;;33.81;49.25
54503;BME280;40411;50.090;21.954;2022-08-18T11:24:08;157712.34;;;34.40;46.93
54503;BME280;40411;50.090;21.954;2022-08-18T11:26:39;157218.19;;;32.45;51.07
54503;BME280;40411;50.090;21.954;2022-08-18T11:32:10;156900.69;;;31.20;55.43
54503;BME280;40411;50.090;21.954;2022-08-18T11:34:43;156843.72;;;30.97;56.97
54503;BME280;40411;50.090;21.954;2022-08-18T11:39:57;156776.34;;;30.70;58.23
54503;BME280;40411;50.090;21.954;2022-08-18T11:42:36;156734.91;;;30.54;60.04
54503;BME280;40411;50.090;21.954;2022-08-18T11:45:16;156662.38;;;30.25;58.29
54503;BME280;40411;50.090;21.954;2022-08-18T11:58:48;156997.91;;;31.58;55.68
54503;BME280;40411;50.090;21.954;2022-08-18T12:06:40;157359.56;;;33.01;50.10
54503;BME280;40411;50.090;21.954;2022-08-18T12:12:00;157404.97;;;33.19;52.81
54503;BME280;40411;50.090;21.954;2022-08-18T12:14:30;157472.34;;;33.45;53.57
54503;BME280;40411;50.090;21.954;2022-08-18T12:16:57;157353.03;;;32.98;50.12
54503;BME280;40411;50.090;21.954;2022-08-18T12:19:24;157180.63;;;32.30;51.74
54503;BME280;40411;50.090;21.954;2022-08-18T12:21:55;157332.28;;;32.90;51.88
54503;BME280;40411;50.090;21.954;2022-08-18T12:24:26;157465.84;;;33.43;48.85
54503;BME280;40411;50.090;21.954;2022-08-18T12:26:53;157564.44;;;33.81;52.17
54503;BME280;40411;50.090;21.954;2022-08-18T12:29:19;157502.19;;;33.57;48.97
54503;BME280;40411;50.090;21.954;2022-08-18T12:31:48;157508.69;;;33.59;48.68
54503;BME280;40411;50.090;21.954;2022-08-18T12:34:18;157397.19;;;33.15;50.90
54503;BME280;40411;50.090;21.954;2022-08-18T12:36:45;157460.72;;;33.41;50.09
54503;BME280;40411;50.090;21.954;2022-08-18T12:39:11;157494.44;;;33.54;48.88
54503;BME280;40411;50.090;21.954;2022-08-18T12:41:38;157513.88;;;33.62;49.46
54503;BME280;40411;50.090;21.954;2022-08-18T12:44:04;157504.81;;;33.58;47.38
54503;BME280;40411;50.090;21.954;2022-08-18T12:46:30;157695.50;;;34.33;46.71
54503;BME280;40411;50.090;21.954;2022-08-18T12:48:56;157525.56;;;33.66;47.86
54503;BME280;40411;50.090;21.954;2022-08-18T12:51:22;157570.94;;;33.84;47.11
54503;BME280;40411;50.090;21.954;2022-08-18T12:53:48;157534.63;;;33.70;48.40
54503;BME280;40411;50.090;21.954;2022-08-18T12:56:24;157520.38;;;33.64;48.71
54503;BME280;40411;50.090;21.954;2022-08-18T12:58:52;157674.75;;;34.25;46.75
54503;BME280;40411;50.090;21.954;2022-08-18T13:01:18;157607.22;;;33.98;47.37
54503;BME280;40411;50.090;21.954;2022-08-18T13:03:45;157472.34;;;33.45;49.57
54503;BME280;40411;50.090;21.954;2022-08-18T13:06:12;157502.19;;;33.57;48.04
54503;BME280;40411;50.090;21.954;2022-08-18T13:08:38;157485.31;;;33.50;47.75
54503;BME280;40411;50.090;21.954;2022-08-18T13:11:04;157559.28;;;33.79;47.24
54503;BME280;40411;50.090;21.954;2022-08-18T13:13:39;157612.44;;;34.00;48.06
54503;BME280;40411;50.090;21.954;2022-08-18T13:16:06;157525.56;;;33.66;47.47
54503;BME280;40411;50.090;21.954;2022-08-18T13:18:34;157600.75;;;33.96;49.03
54503;BME280;40411;50.090;21.954;2022-08-18T13:21:02;157668.25;;;34.22;49.18
54503;BME280;40411;50.090;21.954;2022-08-18T13:23:28;157551.47;;;33.76;47.39
54503;BME280;40411;50.090;21.954;2022-08-18T13:25:55;157398.47;;;33.16;49.02
54503;BME280;40411;50.090;21.954;2022-08-18T13:28:22;157486.59;;;33.51;47.43
54503;BME280;40411;50.090;21.954;2022-08-18T13:30:49;157406.25;;;33.19;48.05
54503;BME280;40411;50.090;21.954;2022-08-18T13:33:16;157318.03;;;32.84;48.51
54503;BME280;40411;50.090;21.954;2022-08-18T13:35:46;157404.97;;;33.19;50.62
54503;BME280;40411;50.090;21.954;2022-08-18T13:38:14;157369.97;;;33.05;49.01
54503;BME280;40411;50.090;21.954;2022-08-18T13:40:54;157325.78;;;32.87;50.67
54503;BME280;40411;50.090;21.954;2022-08-18T13:43:28;157398.47;;;33.16;47.80
54503;BME280;40411;50.090;21.954;2022-08-18T13:45:55;157464.56;;;33.42;49.34
54503;BME280;40411;50.090;21.954;2022-08-18T13:48:21;157454.22;;;33.38;46.62
54503;BME280;40411;50.090;21.954;2022-08-18T13:50:46;157410.09;;;33.21;46.98
54503;BME280;40411;50.090;21.954;2022-08-18T13:53:17;157312.88;;;32.82;47.31
54503;BME280;40411;50.090;21.954;2022-08-18T13:55:44;157268.78;;;32.65;49.01
54503;BME280;40411;50.090;21.954;2022-08-18T13:58:11;157171.56;;;32.26;48.58
54503;BME280;40411;50.090;21.954;2022-08-18T14:00:38;157229.91;;;32.49;48.06
54503;BME280;40411;50.090;21.954;2022-08-18T14:03:05;157268.78;;;32.65;48.32
54503;BME280;40411;50.090;21.954;2022-08-18T14:05:32;157069.13;;;31.86;50.77
54503;BME280;40411;50.090;21.954;2022-08-18T14:07:59;157128.81;;;32.10;51.61
54503;BME280;40411;50.090;21.954;2022-08-18T14:10:25;157121.00;;;32.07;51.00
54503;BME280;40411;50.090;21.954;2022-08-18T14:12:56;157144.34;;;32.16;52.97
54503;BME280;40411;50.090;21.954;2022-08-18T14:15:23;157180.63;;;32.30;48.72
54503;BME280;40411;50.090;21.954;2022-08-18T14:17:49;157113.22;;;32.03;49.69
54503;BME280;40411;50.090;21.954;2022-08-18T14:20:16;157030.31;;;31.71;51.08
54503;BME280;40411;50.090;21.954;2022-08-18T14:23:01;157110.66;;;32.02;49.48
54503;BME280;40411;50.090;21.954;2022-08-18T14:25:46;157115.84;;;32.04;50.16
54503;BME280;40411;50.090;21.954;2022-08-18T14:28:32;156984.94;;;31.53;50.38
54503;BME280;40411;50.090;21.954;2022-08-18T14:31:00;157082.16;;;31.91;52.30
54503;BME280;40411;50.090;21.954;2022-08-18T14:33:28;157126.19;;;32.09;50.08
54503;BME280;40411;50.090;21.954;2022-08-18T14:35:54;157105.47;;;32.00;50.23
54503;BME280;40411;50.090;21.954;2022-08-18T14:38:20;156978.47;;;31.50;51.11
54503;BME280;40411;50.090;21.954;2022-08-18T14:40:47;156982.38;;;31.52;52.37
54503;BME280;40411;50.090;21.954;2022-08-18T14:43:16;156934.38;;;31.33;50.92
54503;BME280;40411;50.090;21.954;2022-08-18T14:45:43;157079.53;;;31.90;51.30
54503;BME280;40411;50.090;21.954;2022-08-18T14:48:13;157022.47;;;31.68;50.63
54503;BME280;40411;50.090;21.954;2022-08-18T14:50:41;156883.88;;;31.13;51.14
54503;BME280;40411;50.090;21.954;2022-08-18T14:53:08;157051.03;;;31.79;52.47
54503;BME280;40411;50.090;21.954;2022-08-18T14:55:34;157073.06;;;31.88;49.97
54503;BME280;40411;50.090;21.954;2022-08-18T14:58:02;157117.13;;;32.05;49.94
54503;BME280;40411;50.090;21.954;2022-08-18T15:00:28;157008.22;;;31.62;51.02
54503;BME280;40411;50.090;21.954;2022-08-18T15:02:55;157028.97;;;31.70;51.73
54503;BME280;40411;50.090;21.954;2022-08-18T15:05:22;157022.47;;;31.68;51.63
54503;BME280;40411;50.090;21.954;2022-08-18T15:07:48;157040.66;;;31.75;50.87
54503;BME280;40411;50.090;21.954;2022-08-18T15:10:15;157019.91;;;31.67;50.98
54503;BME280;40411;50.090;21.954;2022-08-18T15:12:42;156920.13;;;31.27;50.94
54503;BME280;40411;50.090;21.954;2022-08-18T15:15:10;156961.63;;;31.44;51.21
54503;BME280;40411;50.090;21.954;2022-08-18T15:17:38;156991.41;;;31.55;51.94
54503;BME280;40411;50.090;21.954;2022-08-18T15:20:06;157062.66;;;31.83;51.19
54503;BME280;40411;50.090;21.954;2022-08-18T15:22:40;156965.50;;;31.45;51.44
54503;BME280;40411;50.090;21.954;2022-08-18T15:25:25;156946.09;;;31.37;51.46
54503;BME280;40411;50.090;21.954;2022-08-18T15:28:21;156922.69;;;31.28;51.49